カンゲルルススアーク の空港の天気 - METARとTAF

カンゲルルススアーク空港 ( BGSF / SFJ ) - グリーンランド カンゲルルススアーク
飛行場実況気象(Metar)
観測時間12/14 02:50 WGT (12/14 05:50 UTC)
風向・風速東北東 3m/s
視程-
天気現象弱い雪
全天の8割程度の雲 雲底高度 490m
全天を覆う雲 雲底高度 610m
気温-23℃
湿度84%
気圧996hPa
METARBGSF 140550Z AUTO 06006KT 9999NDV -SN BKN016/// OVC020/// M23/M25 Q0996
過去の天気等 Google飛行場航空写真 Wunderground天気予報

過去48時間のMETAR

飛行場予報(TAF)
発表時間: 12/14 03:03 WGT (12/14 06:03 UTC)
予報対象時間: 14日3時 WGT ~ 15日9時 WGT
風向・風速東北東 3m/s
視程10km以上
少しの雲 雲底高度 4570m
14日3時 WGT ~ 14日11時 WGT に一時的に
天気現象弱い雪
全天の8割程度の雲 雲底高度 460m
TAF AMD BGSF 140603Z 1406/1512 06006KT 9999 FEW150
TEMPO 1406/1414 -SN BKN015